createdAt,value
2023-12-11T00:02:07.788Z,3.77
2023-12-11T00:04:39.655Z,3.47
2023-12-11T00:07:11.602Z,3.30
2023-12-11T00:09:43.808Z,5.00
2023-12-11T00:12:17.094Z,4.20
2023-12-11T00:14:49.196Z,4.00
2023-12-11T00:17:21.085Z,3.30
2023-12-11T00:19:52.983Z,3.53
2023-12-11T00:22:25.026Z,3.03
2023-12-11T00:24:57.347Z,4.50
2023-12-11T00:27:29.675Z,3.50
2023-12-11T00:30:01.875Z,3.40
2023-12-11T00:32:33.753Z,5.00
2023-12-11T00:35:05.655Z,4.47
2023-12-11T00:37:37.489Z,4.30
2023-12-11T00:40:09.431Z,4.87
2023-12-11T00:42:41.410Z,6.03
2023-12-11T00:45:13.312Z,4.37
2023-12-11T00:47:45.186Z,3.30
2023-12-11T00:50:17.127Z,3.00
2023-12-11T00:52:48.978Z,4.10
2023-12-11T00:55:20.884Z,4.07
2023-12-11T00:57:53.105Z,4.93
2023-12-11T01:00:24.992Z,3.90
2023-12-11T01:02:56.973Z,4.07
2023-12-11T01:05:28.944Z,4.10
2023-12-11T01:08:00.905Z,3.17
2023-12-11T01:10:32.799Z,3.57
2023-12-11T01:13:04.676Z,4.57
2023-12-11T01:15:36.551Z,4.83
2023-12-11T01:18:08.432Z,4.77
2023-12-11T01:20:40.460Z,5.13
2023-12-11T01:23:12.437Z,3.23
2023-12-11T01:25:45.407Z,4.50
2023-12-11T01:28:17.351Z,3.90
2023-12-11T01:30:49.333Z,3.80
2023-12-11T01:33:21.458Z,4.10
2023-12-11T01:35:53.467Z,3.90
2023-12-11T01:38:25.375Z,3.53
2023-12-11T01:40:57.227Z,3.93
2023-12-11T01:43:29.176Z,5.40
2023-12-11T01:46:01.074Z,3.80
2023-12-11T01:48:33.112Z,3.67
2023-12-11T01:51:05.241Z,2.87
2023-12-11T01:53:37.102Z,3.50
2023-12-11T01:56:08.990Z,4.00
2023-12-11T01:58:40.852Z,3.40
2023-12-11T02:01:12.737Z,3.30
2023-12-11T02:03:44.725Z,4.07
2023-12-11T02:06:16.704Z,3.53
2023-12-11T02:08:48.601Z,3.20
2023-12-11T02:11:20.485Z,3.60
2023-12-11T02:13:52.339Z,2.90
2023-12-11T02:16:24.296Z,3.13
2023-12-11T02:18:56.190Z,3.73
2023-12-11T02:21:28.129Z,3.50
2023-12-11T02:24:00.258Z,3.10
2023-12-11T02:26:32.089Z,2.77
2023-12-11T02:29:03.955Z,2.97
2023-12-11T02:31:35.832Z,3.40
2023-12-11T02:34:07.733Z,3.77
2023-12-11T02:36:39.848Z,2.97
2023-12-11T02:39:11.718Z,2.40
2023-12-11T02:41:43.615Z,5.37
2023-12-11T02:44:15.546Z,2.70
2023-12-11T02:46:47.467Z,2.80
2023-12-11T02:49:19.439Z,3.90
2023-12-11T02:51:51.591Z,3.07
2023-12-11T02:54:23.436Z,2.90
2023-12-11T02:56:55.259Z,3.27
2023-12-11T02:59:27.270Z,2.60
2023-12-11T03:01:59.166Z,3.37
2023-12-11T03:04:31.182Z,3.10
2023-12-11T03:07:03.226Z,3.93
2023-12-11T03:09:35.199Z,3.27
2023-12-11T03:12:07.017Z,3.27
2023-12-11T03:14:39.005Z,3.00
2023-12-11T03:17:11.001Z,3.73
2023-12-11T03:19:42.927Z,4.57
2023-12-11T03:22:14.886Z,6.53
2023-12-11T03:24:46.858Z,3.80
2023-12-11T03:27:18.867Z,2.47
2023-12-11T03:29:50.754Z,4.27
2023-12-11T03:32:22.647Z,4.00
2023-12-11T03:34:54.521Z,3.83
2023-12-11T03:37:26.500Z,3.43
2023-12-11T03:39:58.614Z,4.00
2023-12-11T03:42:30.463Z,3.50
2023-12-11T03:45:02.322Z,4.60
2023-12-11T03:47:34.447Z,3.47
2023-12-11T03:50:06.632Z,4.53
2023-12-11T03:52:38.517Z,3.33
2023-12-11T03:55:10.534Z,4.13
2023-12-11T03:57:42.549Z,3.83
2023-12-11T04:00:14.492Z,3.70
2023-12-11T04:02:46.366Z,3.30
2023-12-11T04:05:18.224Z,4.13
2023-12-11T04:07:50.096Z,3.33
2023-12-11T04:10:21.985Z,5.30
2023-12-11T04:12:53.961Z,3.87
2023-12-11T04:15:25.918Z,2.83
2023-12-11T04:17:57.881Z,3.53
2023-12-11T04:20:30.051Z,3.87
2023-12-11T04:23:01.939Z,3.80
2023-12-11T04:25:33.831Z,3.33
2023-12-11T04:28:05.827Z,4.90
2023-12-11T04:30:37.873Z,4.10
2023-12-11T04:33:09.969Z,3.93
2023-12-11T04:35:42.007Z,3.20
2023-12-11T04:38:14.502Z,3.57
2023-12-11T04:40:46.405Z,4.33
2023-12-11T04:43:18.272Z,6.03
2023-12-11T04:45:50.298Z,3.60
2023-12-11T04:48:22.255Z,2.63
2023-12-11T04:50:54.277Z,3.70
2023-12-11T04:53:26.157Z,3.27
2023-12-11T04:55:58.142Z,3.20
2023-12-11T04:58:30.146Z,2.83
2023-12-11T05:01:02.085Z,3.40
2023-12-11T05:03:34.307Z,2.47
2023-12-11T05:06:06.263Z,2.87
2023-12-11T05:08:38.197Z,5.00
2023-12-11T05:11:10.069Z,3.73
2023-12-11T05:13:41.990Z,3.67
2023-12-11T05:16:13.961Z,3.30
2023-12-11T05:18:46.031Z,3.70
2023-12-11T05:21:18.119Z,3.97
2023-12-11T05:23:50.026Z,2.60
2023-12-11T05:26:21.907Z,3.43
2023-12-11T05:28:53.795Z,3.40
2023-12-11T05:31:25.680Z,3.77
2023-12-11T05:33:57.744Z,4.03
2023-12-11T05:36:29.857Z,2.87
2023-12-11T05:39:01.781Z,2.63
2023-12-11T05:41:33.666Z,2.53
2023-12-11T05:44:07.249Z,2.67
2023-12-11T05:46:39.071Z,4.50
2023-12-11T05:49:11.031Z,2.97
2023-12-11T05:51:43.086Z,4.00
2023-12-11T05:54:15.065Z,1.93
2023-12-11T05:56:47.000Z,2.87
2023-12-11T05:59:19.340Z,2.10
2023-12-11T06:01:52.234Z,2.53
2023-12-11T06:04:24.393Z,2.50
2023-12-11T06:06:56.336Z,2.83
2023-12-11T06:09:28.301Z,1.67
2023-12-11T06:12:00.212Z,2.83
2023-12-11T06:14:32.137Z,2.93
2023-12-11T06:17:04.052Z,3.57
2023-12-11T06:19:36.244Z,2.13
2023-12-11T06:22:08.146Z,2.43
2023-12-11T06:24:40.094Z,1.80
2023-12-11T06:27:12.106Z,1.67
2023-12-11T06:29:44.035Z,2.60
2023-12-11T06:32:15.909Z,2.23
2023-12-11T06:34:47.965Z,1.73
2023-12-11T06:37:20.102Z,1.50
2023-12-11T06:39:52.713Z,2.33
2023-12-11T06:42:24.589Z,3.10
2023-12-11T06:44:56.591Z,1.60
2023-12-11T06:47:29.188Z,2.17
2023-12-11T06:50:01.534Z,2.67
2023-12-11T06:52:37.672Z,1.53
2023-12-11T06:55:09.540Z,1.20
2023-12-11T06:57:41.562Z,2.00
2023-12-11T07:00:13.564Z,2.47
2023-12-11T07:02:45.536Z,1.60
2023-12-11T07:05:17.818Z,1.90
2023-12-11T07:07:50.392Z,2.17
2023-12-11T07:10:22.468Z,1.80
2023-12-11T07:12:54.600Z,1.47
2023-12-11T07:15:26.649Z,1.50
2023-12-11T07:17:59.576Z,2.90
2023-12-11T07:20:31.716Z,1.60
2023-12-11T07:23:03.711Z,2.97
2023-12-11T07:25:35.703Z,1.70
2023-12-11T07:28:07.961Z,1.67
2023-12-11T07:30:39.927Z,1.73
2023-12-11T07:33:11.974Z,3.80
2023-12-11T07:35:43.937Z,2.00
2023-12-11T07:38:15.860Z,2.00
2023-12-11T07:40:47.735Z,1.33
2023-12-11T07:43:19.663Z,1.53
2023-12-11T07:45:52.111Z,1.30
2023-12-11T07:48:24.139Z,1.37
2023-12-11T07:50:56.201Z,1.37
2023-12-11T07:53:28.064Z,1.93
2023-12-11T07:55:59.944Z,1.97
2023-12-11T07:58:31.819Z,2.30
2023-12-11T08:01:03.871Z,2.43
2023-12-11T08:03:35.888Z,2.27
2023-12-11T08:06:07.966Z,1.30
2023-12-11T08:08:39.823Z,1.80
2023-12-11T08:11:11.779Z,1.47
2023-12-11T08:13:43.639Z,1.97
2023-12-11T08:16:15.659Z,1.67
2023-12-11T08:18:47.721Z,1.70
2023-12-11T08:21:19.620Z,1.63
2023-12-11T08:23:51.605Z,1.60
2023-12-11T08:26:24.566Z,1.20
2023-12-11T08:28:59.770Z,1.27
2023-12-11T08:31:30.244Z,0.73
2023-12-11T08:34:02.393Z,1.43
2023-12-11T08:36:34.375Z,1.07
2023-12-11T08:39:06.306Z,1.00
2023-12-11T08:41:38.233Z,1.20
2023-12-11T08:44:10.153Z,1.73
2023-12-11T08:46:42.133Z,1.63
2023-12-11T08:49:14.300Z,0.80
2023-12-11T08:51:46.453Z,1.27
2023-12-11T08:54:18.525Z,1.03
2023-12-11T08:56:50.560Z,3.13
2023-12-11T08:59:22.465Z,1.03
2023-12-11T09:01:54.537Z,1.67
2023-12-11T09:04:26.970Z,1.20
2023-12-11T09:06:59.331Z,2.77
2023-12-11T09:09:31.420Z,1.90
2023-12-11T09:12:03.379Z,2.67
2023-12-11T09:14:35.373Z,2.87
2023-12-11T09:17:07.218Z,1.87
2023-12-11T09:19:44.768Z,1.73
2023-12-11T09:22:12.773Z,2.50
2023-12-11T09:24:44.932Z,1.90
2023-12-11T09:27:17.040Z,1.90
2023-12-11T09:29:48.965Z,1.93
2023-12-11T09:32:20.880Z,1.40
2023-12-11T09:34:52.915Z,1.43
2023-12-11T09:37:25.047Z,2.23
2023-12-11T09:39:57.031Z,1.53
2023-12-11T09:42:28.992Z,2.13
2023-12-11T09:45:00.908Z,2.10
2023-12-11T09:47:33.430Z,2.37
2023-12-11T09:50:05.776Z,1.90
2023-12-11T09:52:37.884Z,1.77
2023-12-11T09:55:09.906Z,1.83
2023-12-11T09:57:41.881Z,2.00
2023-12-11T10:00:18.588Z,2.30
2023-12-11T10:02:50.531Z,1.90
2023-12-11T10:05:22.527Z,1.93
2023-12-11T10:07:54.447Z,1.63
2023-12-11T10:10:26.276Z,1.57
2023-12-11T10:12:58.169Z,2.00
2023-12-11T10:15:30.073Z,2.07
2023-12-11T10:18:02.054Z,1.80
2023-12-11T10:20:34.343Z,1.67
2023-12-11T10:23:09.004Z,2.23
2023-12-11T10:25:39.940Z,1.73
2023-12-11T10:28:12.012Z,0.90
2023-12-11T10:30:44.110Z,2.33
2023-12-11T10:33:16.219Z,1.80
2023-12-11T10:35:48.377Z,2.20
2023-12-11T10:38:20.517Z,1.27
2023-12-11T10:40:52.399Z,1.20
2023-12-11T10:43:24.430Z,1.60
2023-12-11T10:45:57.139Z,1.20
2023-12-11T10:48:29.114Z,1.63
2023-12-11T10:51:01.192Z,1.57
2023-12-11T10:53:33.060Z,1.77
2023-12-11T10:56:05.249Z,2.03
2023-12-11T10:58:37.328Z,1.50
2023-12-11T11:01:09.387Z,2.03
2023-12-11T11:03:41.807Z,1.07
2023-12-11T11:06:13.804Z,1.30
2023-12-11T11:08:46.020Z,1.37
2023-12-11T11:11:17.870Z,1.73
2023-12-11T11:13:49.726Z,0.90
2023-12-11T11:16:21.692Z,1.20
2023-12-11T11:18:53.799Z,1.40
2023-12-11T11:21:25.774Z,2.63
2023-12-11T11:23:57.812Z,1.70
2023-12-11T11:26:30.006Z,1.73
2023-12-11T11:29:01.994Z,1.50
2023-12-11T11:31:34.276Z,1.83
2023-12-11T11:34:06.412Z,1.70
2023-12-11T11:36:38.595Z,1.20
2023-12-11T11:39:10.535Z,1.50
2023-12-11T11:41:42.484Z,2.20
2023-12-11T11:44:14.525Z,2.00
2023-12-11T11:46:46.384Z,1.70
2023-12-11T11:49:18.575Z,1.30
2023-12-11T11:51:50.601Z,1.20
2023-12-11T11:54:22.434Z,1.53
2023-12-11T11:56:54.380Z,1.40
2023-12-11T11:59:26.326Z,2.40
2023-12-11T12:01:58.365Z,1.20
2023-12-11T12:04:30.496Z,1.53
2023-12-11T12:07:02.673Z,0.97
2023-12-11T12:09:34.634Z,2.23
2023-12-11T12:12:06.738Z,1.83
2023-12-11T12:14:38.617Z,1.53
2023-12-11T12:17:10.465Z,2.57
2023-12-11T12:19:42.441Z,1.27
2023-12-11T12:22:14.529Z,1.67
2023-12-11T12:24:46.678Z,0.90
2023-12-11T12:27:18.546Z,0.83
2023-12-11T12:29:50.399Z,1.67
2023-12-11T12:32:22.278Z,1.33
2023-12-11T12:34:54.232Z,1.37
2023-12-11T12:37:26.320Z,1.10
2023-12-11T12:39:58.518Z,1.70
2023-12-11T12:42:30.713Z,1.23
2023-12-11T12:45:02.603Z,1.17
2023-12-11T12:47:34.846Z,1.47
2023-12-11T12:50:07.169Z,0.97
2023-12-11T12:52:39.120Z,1.47
2023-12-11T12:55:11.137Z,1.10
2023-12-11T12:57:43.265Z,0.90
2023-12-11T13:00:15.617Z,0.97
2023-12-11T13:02:47.470Z,1.10
2023-12-11T13:05:19.413Z,1.13
2023-12-11T13:07:51.527Z,0.90
2023-12-11T13:10:23.504Z,1.00
2023-12-11T13:12:55.416Z,2.23
2023-12-11T13:15:27.432Z,1.30
2023-12-11T13:17:59.358Z,1.10
2023-12-11T13:20:31.516Z,1.33
2023-12-11T13:23:03.566Z,1.53
2023-12-11T13:25:35.439Z,1.30
2023-12-11T13:28:07.396Z,1.27
2023-12-11T13:30:39.424Z,1.30
2023-12-11T13:33:11.654Z,1.07
2023-12-11T13:35:43.658Z,1.50
2023-12-11T13:38:15.537Z,1.43
2023-12-11T13:40:47.430Z,1.20
2023-12-11T13:43:19.343Z,1.27
2023-12-11T13:45:51.393Z,0.60
2023-12-11T13:48:23.596Z,1.43
2023-12-11T13:50:55.688Z,0.90
2023-12-11T13:53:27.553Z,0.80
2023-12-11T13:55:59.519Z,0.97
2023-12-11T13:58:31.516Z,0.90
2023-12-11T14:01:03.503Z,1.57
2023-12-11T14:03:35.456Z,1.10
2023-12-11T14:06:07.401Z,1.07
2023-12-11T14:08:39.402Z,1.23
2023-12-11T14:11:11.325Z,1.20
2023-12-11T14:13:43.187Z,1.50
2023-12-11T14:16:15.750Z,1.30
2023-12-11T14:18:49.066Z,1.33
2023-12-11T14:21:21.407Z,1.53
2023-12-11T14:23:53.369Z,1.37
2023-12-11T14:26:25.349Z,1.50
2023-12-11T14:28:57.304Z,2.53
2023-12-11T14:31:29.216Z,1.40
2023-12-11T14:34:01.479Z,1.80
2023-12-11T14:36:33.732Z,0.90
2023-12-11T14:39:05.650Z,1.33
2023-12-11T14:41:37.529Z,1.33
2023-12-11T14:44:09.445Z,0.97
2023-12-11T14:46:41.303Z,1.10
2023-12-11T14:49:13.527Z,0.97
2023-12-11T14:51:45.633Z,1.17
2023-12-11T14:54:17.492Z,1.10
2023-12-11T14:56:49.529Z,1.23
2023-12-11T14:59:21.461Z,1.10
2023-12-11T15:01:53.545Z,1.20
2023-12-11T15:04:25.730Z,2.10
2023-12-11T15:06:57.808Z,2.30
2023-12-11T15:09:29.937Z,1.40
2023-12-11T15:12:01.915Z,1.33
2023-12-11T15:14:34.427Z,1.40
2023-12-11T15:17:06.354Z,1.83
2023-12-11T15:19:39.227Z,1.80
2023-12-11T15:22:11.366Z,1.10
2023-12-11T15:24:43.490Z,1.87
2023-12-11T15:27:16.579Z,1.17
2023-12-11T15:29:48.724Z,1.10
2023-12-11T15:32:20.569Z,1.53
2023-12-11T15:34:52.526Z,1.57
2023-12-11T15:37:25.218Z,1.83
2023-12-11T15:39:57.351Z,1.63
2023-12-11T15:42:29.178Z,1.97
2023-12-11T15:45:01.110Z,1.23
2023-12-11T15:47:58.562Z,1.10
2023-12-11T15:50:06.652Z,1.93
2023-12-11T15:52:38.771Z,2.43
2023-12-11T15:55:10.639Z,1.23
2023-12-11T15:57:42.632Z,1.43
2023-12-11T16:00:14.626Z,1.30
2023-12-11T16:02:46.536Z,1.03
2023-12-11T16:05:18.394Z,1.50
2023-12-11T16:07:50.297Z,0.97
2023-12-11T16:10:22.353Z,1.53
2023-12-11T16:12:54.305Z,1.00
2023-12-11T16:15:26.149Z,1.00
2023-12-11T16:17:58.126Z,1.60
2023-12-11T16:20:30.237Z,1.60
2023-12-11T16:23:02.157Z,1.53
2023-12-11T16:25:34.186Z,1.70
2023-12-11T16:28:06.834Z,1.90
2023-12-11T16:30:40.035Z,1.57
2023-12-11T16:33:11.993Z,1.60
2023-12-11T16:35:44.281Z,2.00
2023-12-11T16:38:16.177Z,1.97
2023-12-11T16:40:48.135Z,1.90
2023-12-11T16:43:20.072Z,3.13
2023-12-11T16:45:52.058Z,1.70
2023-12-11T16:48:24.251Z,1.97
2023-12-11T16:50:56.411Z,1.90
2023-12-11T16:53:28.284Z,1.17
2023-12-11T16:56:00.216Z,1.33
2023-12-11T16:58:32.096Z,2.50
2023-12-11T17:01:04.196Z,1.60
2023-12-11T17:03:36.166Z,1.50
2023-12-11T17:06:08.271Z,3.10
2023-12-11T17:08:40.234Z,2.40
2023-12-11T17:11:12.170Z,2.43
2023-12-11T17:13:44.272Z,1.80
2023-12-11T17:16:16.259Z,3.13
2023-12-11T17:18:48.683Z,2.70
2023-12-11T17:21:25.455Z,2.73
2023-12-11T17:23:54.319Z,1.73
2023-12-11T17:26:26.157Z,2.47
2023-12-11T17:28:58.102Z,2.97
2023-12-11T17:31:30.020Z,3.10
2023-12-11T17:34:02.038Z,3.20
2023-12-11T17:36:34.209Z,4.00
2023-12-11T17:39:06.077Z,2.10
2023-12-11T17:41:37.927Z,2.00
2023-12-11T17:44:09.805Z,2.50
2023-12-11T17:46:41.708Z,2.03
2023-12-11T17:49:13.731Z,2.37
2023-12-11T17:51:45.741Z,2.10
2023-12-11T17:54:17.702Z,2.00
2023-12-11T17:56:49.566Z,2.90
2023-12-11T17:59:22.001Z,1.57
2023-12-11T18:01:54.561Z,2.00
2023-12-11T18:04:26.760Z,2.27
2023-12-11T18:06:59.151Z,1.77
2023-12-11T18:09:32.141Z,1.90
2023-12-11T18:12:05.093Z,2.00
2023-12-11T18:14:37.053Z,3.13
2023-12-11T18:17:08.970Z,2.03
2023-12-11T18:19:40.964Z,2.23
2023-12-11T18:22:12.891Z,2.03
2023-12-11T18:24:46.638Z,2.67
2023-12-11T18:27:18.723Z,2.47
2023-12-11T18:29:51.609Z,2.07
2023-12-11T18:32:24.649Z,2.93
2023-12-11T18:34:56.598Z,2.10
2023-12-11T18:37:29.383Z,2.70
2023-12-11T18:40:02.030Z,1.97
2023-12-11T18:42:34.199Z,2.23
2023-12-11T18:45:06.346Z,2.50
2023-12-11T18:47:38.310Z,2.60
2023-12-11T18:50:10.308Z,2.07
2023-12-11T18:52:42.284Z,2.00
2023-12-11T18:55:14.187Z,1.80
2023-12-11T18:57:46.108Z,2.73
2023-12-11T19:00:18.091Z,1.93
2023-12-11T19:02:50.926Z,2.03
2023-12-11T19:05:23.291Z,1.93
2023-12-11T19:07:55.370Z,3.47
2023-12-11T19:10:27.318Z,2.10
2023-12-11T19:12:59.266Z,2.50
2023-12-11T19:15:31.165Z,2.17
2023-12-11T19:18:03.290Z,2.60
2023-12-11T19:20:35.482Z,1.60
2023-12-11T19:23:07.478Z,1.80
2023-12-11T19:25:39.345Z,2.07
2023-12-11T19:28:11.267Z,2.73
2023-12-11T19:30:43.275Z,2.40
2023-12-11T19:33:15.721Z,2.40
2023-12-11T19:35:47.659Z,3.00
2023-12-11T19:38:19.621Z,2.60
2023-12-11T19:40:51.517Z,3.03
2023-12-11T19:43:23.463Z,2.03
2023-12-11T19:45:55.456Z,1.90
2023-12-11T19:48:27.500Z,2.13
2023-12-11T19:50:59.458Z,2.63
2023-12-11T19:53:32.714Z,2.47
2023-12-11T19:56:04.688Z,2.60
2023-12-11T19:58:36.677Z,2.67
2023-12-11T20:01:08.712Z,2.57
2023-12-11T20:03:40.968Z,3.50
2023-12-11T20:06:13.326Z,4.03
2023-12-11T20:08:45.260Z,2.63
2023-12-11T20:11:17.202Z,3.13
2023-12-11T20:13:49.177Z,2.67
2023-12-11T20:16:21.125Z,2.50
2023-12-11T20:18:53.166Z,2.43
2023-12-11T20:21:25.278Z,2.30
2023-12-11T20:23:57.177Z,3.47
2023-12-11T20:26:29.040Z,2.33
2023-12-11T20:29:01.006Z,2.73
2023-12-11T20:31:33.030Z,3.50
2023-12-11T20:34:05.223Z,3.07
2023-12-11T20:36:37.220Z,3.03
2023-12-11T20:39:09.105Z,3.07
2023-12-11T20:41:40.956Z,2.33
2023-12-11T20:44:12.780Z,2.53
2023-12-11T20:46:44.654Z,2.60
2023-12-11T20:49:16.738Z,2.30
2023-12-11T20:51:48.816Z,2.60
2023-12-11T20:54:20.626Z,1.97
2023-12-11T20:56:52.918Z,2.33
2023-12-11T20:59:24.739Z,2.47
2023-12-11T21:01:57.079Z,1.80
2023-12-11T21:04:29.281Z,2.10
2023-12-11T21:07:02.267Z,2.03
2023-12-11T21:09:34.212Z,2.40
2023-12-11T21:12:06.307Z,2.23
2023-12-11T21:14:38.418Z,2.77
2023-12-11T21:17:10.411Z,2.10
2023-12-11T21:19:42.315Z,2.43
2023-12-11T21:22:15.544Z,1.70
2023-12-11T21:24:47.574Z,1.70
2023-12-11T21:27:19.831Z,1.73
2023-12-11T21:29:51.663Z,1.63
2023-12-11T21:32:23.523Z,1.50
2023-12-11T21:34:55.571Z,1.63
2023-12-11T21:37:27.741Z,2.37
2023-12-11T21:40:00.021Z,1.30
2023-12-11T21:42:32.192Z,1.30
2023-12-11T21:45:04.969Z,1.43
2023-12-11T21:47:37.395Z,1.90
2023-12-11T21:50:10.223Z,1.80
2023-12-11T21:52:42.578Z,1.97
2023-12-11T21:55:14.530Z,1.70
2023-12-11T21:57:47.886Z,1.53
2023-12-11T22:00:19.987Z,1.77
2023-12-11T22:02:51.864Z,1.83
2023-12-11T22:05:23.859Z,1.33
2023-12-11T22:07:55.829Z,1.67
2023-12-11T22:10:27.833Z,1.40
2023-12-11T22:12:59.820Z,1.10
2023-12-11T22:15:33.714Z,1.33
2023-12-11T22:18:05.706Z,1.50
2023-12-11T22:20:37.683Z,1.30
2023-12-11T22:23:09.635Z,1.23
2023-12-11T22:25:41.450Z,1.10
2023-12-11T22:28:13.628Z,1.13
2023-12-11T22:30:46.126Z,1.10
2023-12-11T22:33:18.090Z,1.27
2023-12-11T22:35:49.992Z,1.27
2023-12-11T22:38:21.843Z,1.70
2023-12-11T22:40:53.869Z,1.60
2023-12-11T22:43:25.765Z,1.63
2023-12-11T22:46:00.243Z,1.30
2023-12-11T22:48:32.438Z,1.43
2023-12-11T22:51:04.517Z,1.10
2023-12-11T22:53:36.353Z,1.50
2023-12-11T22:56:08.273Z,1.27
2023-12-11T22:58:40.251Z,1.53
2023-12-11T23:01:12.168Z,1.13
2023-12-11T23:03:44.617Z,1.13
2023-12-11T23:06:16.731Z,0.90
2023-12-11T23:08:49.097Z,2.07
2023-12-11T23:11:22.120Z,1.10
2023-12-11T23:13:54.005Z,1.30
2023-12-11T23:16:25.861Z,1.20
2023-12-11T23:18:57.765Z,1.20
2023-12-11T23:21:29.710Z,1.00
2023-12-11T23:24:01.595Z,1.10
2023-12-11T23:26:33.464Z,1.27
2023-12-11T23:29:05.373Z,1.20
2023-12-11T23:31:37.211Z,1.03
2023-12-11T23:34:09.176Z,1.50
2023-12-11T23:36:41.248Z,1.50
2023-12-11T23:39:13.111Z,1.30
2023-12-11T23:41:45.026Z,1.60
2023-12-11T23:44:16.917Z,1.30
2023-12-11T23:46:48.978Z,1.37
2023-12-11T23:49:21.041Z,1.27
2023-12-11T23:51:53.043Z,1.83
2023-12-11T23:54:24.877Z,1.73
2023-12-11T23:56:56.749Z,1.33
2023-12-11T23:59:28.638Z,1.60
